sensor_id;sensor_type;location;lat;lon;timestamp;pressure;altitude;pressure_sealevel;temperature;humidity
33496;BME280;19836;55.812;37.560;2023-05-29T03:05:22;99907.94;;;12.82;62.76
33496;BME280;19836;55.812;37.560;2023-05-29T03:08:41;99914.84;;;12.89;62.63
33496;BME280;19836;55.812;37.560;2023-05-29T04:17:19;99945.97;;;14.53;57.67
33496;BME280;19836;55.812;37.560;2023-05-29T04:20:07;99947.53;;;14.58;57.56
33496;BME280;19836;55.812;37.560;2023-05-29T05:09:57;99973.53;;;16.15;51.46
33496;BME280;19836;55.812;37.560;2023-05-29T05:33:24;99974.47;;;17.02;47.97
33496;BME280;19836;55.812;37.560;2023-05-29T05:35:50;99979.63;;;17.06;47.80
33496;BME280;19836;55.812;37.560;2023-05-29T05:38:45;99976.06;;;17.06;47.21
33496;BME280;19836;55.812;37.560;2023-05-29T05:45:37;99983.06;;;17.27;46.91
33496;BME280;19836;55.812;37.560;2023-05-29T06:25:51;99987.19;;;18.30;38.22
33496;BME280;19836;55.812;37.560;2023-05-29T06:28:19;99981.94;;;18.42;37.95
33496;BME280;19836;55.812;37.560;2023-05-29T06:30:47;99980.28;;;18.55;38.01
33496;BME280;19836;55.812;37.560;2023-05-29T06:33:13;99980.13;;;18.58;36.36
33496;BME280;19836;55.812;37.560;2023-05-29T06:40:11;99989.47;;;18.53;35.79
33496;BME280;19836;55.812;37.560;2023-05-29T06:42:38;99988.44;;;18.55;36.28
33496;BME280;19836;55.812;37.560;2023-05-29T06:45:17;99987.91;;;18.64;36.37
33496;BME280;19836;55.812;37.560;2023-05-29T06:57:01;99999.22;;;18.86;34.21
33496;BME280;19836;55.812;37.560;2023-05-29T06:59:54;99994.75;;;18.85;34.17
33496;BME280;19836;55.812;37.560;2023-05-29T07:02:21;99998.16;;;18.89;34.50
33496;BME280;19836;55.812;37.560;2023-05-29T07:04:51;100004.09;;;18.95;34.74
33496;BME280;19836;55.812;37.560;2023-05-29T07:07:17;99994.13;;;18.96;34.69
33496;BME280;19836;55.812;37.560;2023-05-29T07:09:48;99990.75;;;19.06;35.03
33496;BME280;19836;55.812;37.560;2023-05-29T07:12:15;99989.59;;;19.10;34.90
33496;BME280;19836;55.812;37.560;2023-05-29T07:14:41;99994.56;;;19.18;35.48
33496;BME280;19836;55.812;37.560;2023-05-29T07:17:08;99995.97;;;19.25;35.18
33496;BME280;19836;55.812;37.560;2023-05-29T07:19:34;99996.47;;;19.31;34.98
33496;BME280;19836;55.812;37.560;2023-05-29T07:22:01;99998.63;;;19.40;34.59
33496;BME280;19836;55.812;37.560;2023-05-29T07:24:28;99994.84;;;19.43;34.37
33496;BME280;19836;55.812;37.560;2023-05-29T07:26:55;100003.88;;;19.43;34.00
33496;BME280;19836;55.812;37.560;2023-05-29T07:29:21;99992.44;;;19.38;33.75
33496;BME280;19836;55.812;37.560;2023-05-29T07:31:52;99994.34;;;19.36;33.33
33496;BME280;19836;55.812;37.560;2023-05-29T07:34:20;99987.66;;;19.42;33.30
33496;BME280;19836;55.812;37.560;2023-05-29T07:40:53;99986.50;;;19.60;33.52
33496;BME280;19836;55.812;37.560;2023-05-29T07:43:30;99976.69;;;19.57;33.00
33496;BME280;19836;55.812;37.560;2023-05-29T07:46:01;99976.50;;;19.60;33.20
33496;BME280;19836;55.812;37.560;2023-05-29T07:48:28;99976.53;;;19.74;33.54
33496;BME280;19836;55.812;37.560;2023-05-29T07:50:55;99984.69;;;19.88;33.22
33496;BME280;19836;55.812;37.560;2023-05-29T07:53:23;99979.19;;;20.02;33.12
33496;BME280;19836;55.812;37.560;2023-05-29T07:55:49;99982.03;;;20.01;32.59
33496;BME280;19836;55.812;37.560;2023-05-29T07:58:16;99982.41;;;19.95;32.59
33496;BME280;19836;55.812;37.560;2023-05-29T08:00:44;99990.69;;;19.93;32.15
33496;BME280;19836;55.812;37.560;2023-05-29T08:03:10;99980.41;;;19.98;32.37
33496;BME280;19836;55.812;37.560;2023-05-29T08:06:09;99993.13;;;20.12;32.16
33496;BME280;19836;55.812;37.560;2023-05-29T08:08:35;99997.19;;;20.19;32.48
33496;BME280;19836;55.812;37.560;2023-05-29T08:11:02;99988.25;;;20.31;32.65
33496;BME280;19836;55.812;37.560;2023-05-29T08:13:29;99985.97;;;20.37;32.26
33496;BME280;19836;55.812;37.560;2023-05-29T08:15:56;99984.59;;;20.44;32.25
33496;BME280;19836;55.812;37.560;2023-05-29T08:18:25;99992.34;;;20.50;32.31
33496;BME280;19836;55.812;37.560;2023-05-29T08:20:52;99994.19;;;20.50;31.86
33496;BME280;19836;55.812;37.560;2023-05-29T08:23:18;99990.34;;;20.40;30.73
33496;BME280;19836;55.812;37.560;2023-05-29T08:25:44;99991.81;;;20.31;31.12
33496;BME280;19836;55.812;37.560;2023-05-29T08:28:10;99981.59;;;20.35;31.34
33496;BME280;19836;55.812;37.560;2023-05-29T08:30:36;99972.91;;;20.42;31.58
33496;BME280;19836;55.812;37.560;2023-05-29T08:33:05;99984.75;;;20.55;31.68
33496;BME280;19836;55.812;37.560;2023-05-29T08:35:31;99985.22;;;20.62;31.17
33496;BME280;19836;55.812;37.560;2023-05-29T08:37:57;99984.00;;;20.66;31.02
33496;BME280;19836;55.812;37.560;2023-05-29T08:40:24;99981.75;;;20.72;31.01
33496;BME280;19836;55.812;37.560;2023-05-29T08:42:56;99978.97;;;20.86;31.30
33496;BME280;19836;55.812;37.560;2023-05-29T08:45:24;99974.13;;;20.91;30.93
33496;BME280;19836;55.812;37.560;2023-05-29T08:47:53;99986.25;;;21.00;31.25
33496;BME280;19836;55.812;37.560;2023-05-29T08:50:21;99982.09;;;20.94;30.35
33496;BME280;19836;55.812;37.560;2023-05-29T08:52:47;99969.06;;;20.85;30.12
33496;BME280;19836;55.812;37.560;2023-05-29T08:55:13;99975.28;;;20.87;30.21
33496;BME280;19836;55.812;37.560;2023-05-29T08:57:40;99970.66;;;20.89;29.70
33496;BME280;19836;55.812;37.560;2023-05-29T09:00:09;99975.97;;;20.91;29.75
33496;BME280;19836;55.812;37.560;2023-05-29T09:02:39;99970.53;;;21.03;30.09
33496;BME280;19836;55.812;37.560;2023-05-29T09:05:06;99970.81;;;21.13;30.28
33496;BME280;19836;55.812;37.560;2023-05-29T09:07:33;99965.81;;;21.19;30.06
33496;BME280;19836;55.812;37.560;2023-05-29T09:09:59;99959.56;;;21.17;30.15
33496;BME280;19836;55.812;37.560;2023-05-29T09:12:26;99974.53;;;21.24;30.04
33496;BME280;19836;55.812;37.560;2023-05-29T09:14:52;99961.53;;;21.15;29.41
33496;BME280;19836;55.812;37.560;2023-05-29T09:17:18;99956.41;;;21.23;29.19
33496;BME280;19836;55.812;37.560;2023-05-29T09:19:44;99948.19;;;22.11;28.71
33496;BME280;19836;55.812;37.560;2023-05-29T09:22:13;99942.47;;;23.88;28.42
33496;BME280;19836;55.812;37.560;2023-05-29T09:24:43;99943.16;;;25.60;26.41
33496;BME280;19836;55.812;37.560;2023-05-29T09:27:11;99932.81;;;27.01;24.93
33496;BME280;19836;55.812;37.560;2023-05-29T09:29:46;99933.72;;;28.49;23.89
33496;BME280;19836;55.812;37.560;2023-05-29T09:32:15;99941.66;;;29.66;22.96
33496;BME280;19836;55.812;37.560;2023-05-29T09:34:42;99932.72;;;30.31;21.92
33496;BME280;19836;55.812;37.560;2023-05-29T09:37:09;99937.47;;;31.04;20.74
33496;BME280;19836;55.812;37.560;2023-05-29T09:42:16;99930.06;;;32.48;18.84
33496;BME280;19836;55.812;37.560;2023-05-29T09:44:44;99936.03;;;32.98;18.87
33496;BME280;19836;55.812;37.560;2023-05-29T09:47:17;99932.88;;;33.31;18.30
33496;BME280;19836;55.812;37.560;2023-05-29T09:49:44;99930.97;;;33.69;17.70
33496;BME280;19836;55.812;37.560;2023-05-29T09:52:12;99919.94;;;34.27;17.46
33496;BME280;19836;55.812;37.560;2023-05-29T09:54:42;99928.72;;;34.38;16.65
33496;BME280;19836;55.812;37.560;2023-05-29T09:57:16;99925.69;;;34.25;16.54
33496;BME280;19836;55.812;37.560;2023-05-29T09:59:46;99917.44;;;34.61;16.45
33496;BME280;19836;55.812;37.560;2023-05-29T10:02:17;99918.16;;;34.98;15.77
33496;BME280;19836;55.812;37.560;2023-05-29T10:04:44;99912.50;;;35.13;15.82
33496;BME280;19836;55.812;37.560;2023-05-29T10:07:24;99922.09;;;35.46;15.58
33496;BME280;19836;55.812;37.560;2023-05-29T10:09:55;99915.72;;;35.10;14.86
33496;BME280;19836;55.812;37.560;2023-05-29T10:12:27;99907.38;;;34.95;14.67
33496;BME280;19836;55.812;37.560;2023-05-29T10:14:57;99909.78;;;35.19;14.97
33496;BME280;19836;55.812;37.560;2023-05-29T10:17:32;99905.13;;;35.41;14.62
33496;BME280;19836;55.812;37.560;2023-05-29T10:20:01;99902.91;;;35.57;14.82
33496;BME280;19836;55.812;37.560;2023-05-29T10:22:29;99912.03;;;36.21;15.07
33496;BME280;19836;55.812;37.560;2023-05-29T10:24:57;99903.59;;;35.87;14.74
33496;BME280;19836;55.812;37.560;2023-05-29T10:27:24;99905.19;;;36.23;15.02
33496;BME280;19836;55.812;37.560;2023-05-29T10:29:58;99899.69;;;36.43;14.11
33496;BME280;19836;55.812;37.560;2023-05-29T10:32:37;99899.72;;;36.49;14.36
33496;BME280;19836;55.812;37.560;2023-05-29T10:35:15;99890.13;;;36.65;14.35
33496;BME280;19836;55.812;37.560;2023-05-29T10:37:53;99903.56;;;36.95;14.10
33496;BME280;19836;55.812;37.560;2023-05-29T10:40:25;99899.25;;;36.86;13.82
33496;BME280;19836;55.812;37.560;2023-05-29T10:42:55;99899.38;;;36.65;13.90
33496;BME280;19836;55.812;37.560;2023-05-29T10:50:55;99893.28;;;37.09;13.10
33496;BME280;19836;55.812;37.560;2023-05-29T10:53:26;99884.31;;;37.33;13.22
33496;BME280;19836;55.812;37.560;2023-05-29T10:55:59;99883.72;;;37.63;13.55
33496;BME280;19836;55.812;37.560;2023-05-29T10:58:26;99889.09;;;37.78;13.47
33496;BME280;19836;55.812;37.560;2023-05-29T11:00:54;99878.72;;;37.91;13.09
33496;BME280;19836;55.812;37.560;2023-05-29T11:03:25;99879.59;;;37.92;12.93
33496;BME280;19836;55.812;37.560;2023-05-29T11:11:13;99884.13;;;37.54;12.39
33496;BME280;19836;55.812;37.560;2023-05-29T11:13:40;99869.50;;;37.91;12.95
33496;BME280;19836;55.812;37.560;2023-05-29T11:18:56;99880.97;;;36.84;12.16
33496;BME280;19836;55.812;37.560;2023-05-29T11:24:21;99876.38;;;38.08;12.19
33496;BME280;19836;55.812;37.560;2023-05-29T11:26:50;99873.34;;;37.90;11.48
33496;BME280;19836;55.812;37.560;2023-05-29T11:29:21;99878.97;;;37.44;11.20
33496;BME280;19836;55.812;37.560;2023-05-29T11:31:47;99863.47;;;37.81;11.19
33496;BME280;19836;55.812;37.560;2023-05-29T11:34:15;99861.72;;;37.54;11.32
33496;BME280;19836;55.812;37.560;2023-05-29T11:36:41;99874.63;;;37.22;11.52
33496;BME280;19836;55.812;37.560;2023-05-29T11:39:09;99869.88;;;37.16;11.46
33496;BME280;19836;55.812;37.560;2023-05-29T11:41:35;99866.88;;;37.18;11.77
33496;BME280;19836;55.812;37.560;2023-05-29T11:44:04;99866.03;;;37.11;11.77
33496;BME280;19836;55.812;37.560;2023-05-29T11:46:35;99867.31;;;37.28;11.31
33496;BME280;19836;55.812;37.560;2023-05-29T11:49:01;99851.25;;;37.56;11.49
33496;BME280;19836;55.812;37.560;2023-05-29T11:51:27;99849.72;;;37.73;11.35
33496;BME280;19836;55.812;37.560;2023-05-29T11:53:54;99850.53;;;37.28;11.60
33496;BME280;19836;55.812;37.560;2023-05-29T11:56:27;99845.41;;;37.51;11.76
33496;BME280;19836;55.812;37.560;2023-05-29T11:58:54;99838.03;;;37.89;12.14
33496;BME280;19836;55.812;37.560;2023-05-29T12:01:23;99832.66;;;37.94;12.42
33496;BME280;19836;55.812;37.560;2023-05-29T12:03:51;99831.16;;;38.04;12.08
33496;BME280;19836;55.812;37.560;2023-05-29T12:06:33;99828.09;;;38.19;11.79
33496;BME280;19836;55.812;37.560;2023-05-29T12:09:00;99824.25;;;37.87;11.96
33496;BME280;19836;55.812;37.560;2023-05-29T12:11:26;99825.56;;;37.52;12.10
33496;BME280;19836;55.812;37.560;2023-05-29T12:13:57;99821.31;;;37.76;12.03
33496;BME280;19836;55.812;37.560;2023-05-29T12:16:26;99813.47;;;37.97;12.09
33496;BME280;19836;55.812;37.560;2023-05-29T12:18:54;99821.31;;;37.76;12.04
33496;BME280;19836;55.812;37.560;2023-05-29T12:21:21;99826.91;;;37.37;11.96
33496;BME280;19836;55.812;37.560;2023-05-29T12:23:48;99824.19;;;36.70;12.09
33496;BME280;19836;55.812;37.560;2023-05-29T12:26:14;99821.06;;;37.19;12.27
33496;BME280;19836;55.812;37.560;2023-05-29T12:28:44;99821.06;;;37.45;12.26
33496;BME280;19836;55.812;37.560;2023-05-29T12:31:10;99813.09;;;37.55;12.37
33496;BME280;19836;55.812;37.560;2023-05-29T12:33:42;99811.63;;;37.33;12.34
33496;BME280;19836;55.812;37.560;2023-05-29T12:36:09;99804.50;;;37.50;12.27
33496;BME280;19836;55.812;37.560;2023-05-29T12:38:50;99803.97;;;38.18;12.23
33496;BME280;19836;55.812;37.560;2023-05-29T12:41:26;99806.97;;;38.23;12.00
33496;BME280;19836;55.812;37.560;2023-05-29T12:43:53;99808.41;;;38.38;11.90
33496;BME280;19836;55.812;37.560;2023-05-29T12:46:21;99807.78;;;38.30;11.68
33496;BME280;19836;55.812;37.560;2023-05-29T12:48:47;99799.75;;;37.83;11.75
33496;BME280;19836;55.812;37.560;2023-05-29T12:51:13;99790.88;;;37.92;11.89
33496;BME280;19836;55.812;37.560;2023-05-29T12:53:39;99794.31;;;38.07;12.01
33496;BME280;19836;55.812;37.560;2023-05-29T12:56:05;99811.09;;;38.14;12.06
33496;BME280;19836;55.812;37.560;2023-05-29T12:58:31;99796.09;;;37.50;11.50
33496;BME280;19836;55.812;37.560;2023-05-29T13:00:57;99802.13;;;37.27;11.82
33496;BME280;19836;55.812;37.560;2023-05-29T13:03:23;99801.50;;;37.32;12.06
33496;BME280;19836;55.812;37.560;2023-05-29T13:05:50;99791.38;;;37.37;12.04
33496;BME280;19836;55.812;37.560;2023-05-29T13:08:16;99787.06;;;37.54;11.70
33496;BME280;19836;55.812;37.560;2023-05-29T13:10:43;99796.13;;;37.17;11.86
33496;BME280;19836;55.812;37.560;2023-05-29T13:13:09;99796.06;;;36.91;12.13
33496;BME280;19836;55.812;37.560;2023-05-29T13:15:37;99789.84;;;37.09;12.05
33496;BME280;19836;55.812;37.560;2023-05-29T13:18:06;99793.88;;;36.74;12.29
33496;BME280;19836;55.812;37.560;2023-05-29T13:20:31;99801.47;;;36.99;12.50
33496;BME280;19836;55.812;37.560;2023-05-29T13:22:58;99788.19;;;37.14;12.39
33496;BME280;19836;55.812;37.560;2023-05-29T13:25:24;99799.13;;;37.29;12.30
33496;BME280;19836;55.812;37.560;2023-05-29T13:27:51;99795.88;;;37.45;12.43
33496;BME280;19836;55.812;37.560;2023-05-29T13:30:18;99799.56;;;37.13;11.91
33496;BME280;19836;55.812;37.560;2023-05-29T13:32:44;99792.91;;;37.27;12.18
33496;BME280;19836;55.812;37.560;2023-05-29T13:35:10;99792.03;;;37.78;11.96
33496;BME280;19836;55.812;37.560;2023-05-29T13:37:37;99786.38;;;37.85;11.95
33496;BME280;19836;55.812;37.560;2023-05-29T13:40:04;99782.56;;;37.60;11.83
33496;BME280;19836;55.812;37.560;2023-05-29T13:42:30;99787.06;;;37.41;12.53
33496;BME280;19836;55.812;37.560;2023-05-29T13:44:56;99787.28;;;37.46;12.50
33496;BME280;19836;55.812;37.560;2023-05-29T13:47:23;99778.25;;;37.31;12.77
33496;BME280;19836;55.812;37.560;2023-05-29T13:49:48;99798.84;;;36.91;12.60
33496;BME280;19836;55.812;37.560;2023-05-29T13:52:15;99785.50;;;36.74;12.97
33496;BME280;19836;55.812;37.560;2023-05-29T13:54:43;99776.50;;;36.98;12.47
33496;BME280;19836;55.812;37.560;2023-05-29T13:57:09;99779.31;;;36.98;12.57
33496;BME280;19836;55.812;37.560;2023-05-29T13:59:35;99783.59;;;36.81;12.85
33496;BME280;19836;55.812;37.560;2023-05-29T14:02:02;99780.38;;;36.71;12.99
33496;BME280;19836;55.812;37.560;2023-05-29T14:04:30;99779.09;;;36.93;12.86
33496;BME280;19836;55.812;37.560;2023-05-29T14:06:56;99785.13;;;37.03;12.63
33496;BME280;19836;55.812;37.560;2023-05-29T14:09:22;99786.38;;;36.87;13.02
33496;BME280;19836;55.812;37.560;2023-05-29T14:11:58;99792.75;;;36.55;12.68
33496;BME280;19836;55.812;37.560;2023-05-29T14:14:24;99784.09;;;36.31;12.61
33496;BME280;19836;55.812;37.560;2023-05-29T14:16:51;99785.97;;;35.56;12.55
33496;BME280;19836;55.812;37.560;2023-05-29T14:19:18;99784.59;;;34.97;13.17
33496;BME280;19836;55.812;37.560;2023-05-29T14:21:45;99787.66;;;34.10;13.09
33496;BME280;19836;55.812;37.560;2023-05-29T14:24:11;99780.50;;;32.98;13.71
33496;BME280;19836;55.812;37.560;2023-05-29T14:26:37;99784.09;;;32.39;14.39
33496;BME280;19836;55.812;37.560;2023-05-29T14:29:03;99791.06;;;32.35;14.85
33496;BME280;19836;55.812;37.560;2023-05-29T14:31:30;99791.47;;;32.16;14.86
33496;BME280;19836;55.812;37.560;2023-05-29T14:33:56;99790.28;;;31.64;15.30
33496;BME280;19836;55.812;37.560;2023-05-29T14:36:22;99790.69;;;31.12;15.51
33496;BME280;19836;55.812;37.560;2023-05-29T14:38:48;99785.16;;;30.64;16.07
33496;BME280;19836;55.812;37.560;2023-05-29T14:41:15;99784.28;;;30.48;16.31
33496;BME280;19836;55.812;37.560;2023-05-29T14:43:44;99783.88;;;30.11;16.66
33496;BME280;19836;55.812;37.560;2023-05-29T14:46:10;99780.00;;;30.04;17.00
33496;BME280;19836;55.812;37.560;2023-05-29T14:48:36;99776.50;;;29.94;16.81
33496;BME280;19836;55.812;37.560;2023-05-29T14:51:02;99777.44;;;30.02;16.92
33496;BME280;19836;55.812;37.560;2023-05-29T14:53:28;99778.84;;;29.65;17.29
33496;BME280;19836;55.812;37.560;2023-05-29T14:55:54;99779.69;;;29.65;17.54
33496;BME280;19836;55.812;37.560;2023-05-29T14:58:21;99783.63;;;30.04;17.20
33496;BME280;19836;55.812;37.560;2023-05-29T15:00:47;99766.81;;;29.48;17.61
33496;BME280;19836;55.812;37.560;2023-05-29T15:03:13;99780.25;;;28.57;18.36
33496;BME280;19836;55.812;37.560;2023-05-29T15:05:39;99783.47;;;27.91;19.16
33496;BME280;19836;55.812;37.560;2023-05-29T15:08:05;99781.22;;;27.40;19.53
33496;BME280;19836;55.812;37.560;2023-05-29T15:10:31;99776.13;;;27.09;19.74
33496;BME280;19836;55.812;37.560;2023-05-29T15:12:58;99768.66;;;26.82;20.64
33496;BME280;19836;55.812;37.560;2023-05-29T15:15:24;99772.13;;;26.65;20.82
33496;BME280;19836;55.812;37.560;2023-05-29T15:17:51;99780.50;;;26.26;20.79
33496;BME280;19836;55.812;37.560;2023-05-29T15:20:24;99779.91;;;26.03;21.04
33496;BME280;19836;55.812;37.560;2023-05-29T15:22:51;99786.78;;;25.88;21.27
33496;BME280;19836;55.812;37.560;2023-05-29T15:25:19;99772.28;;;25.67;21.38
33496;BME280;19836;55.812;37.560;2023-05-29T15:27:46;99771.53;;;25.65;21.76
33496;BME280;19836;55.812;37.560;2023-05-29T15:30:14;99765.63;;;25.60;21.98
33496;BME280;19836;55.812;37.560;2023-05-29T15:32:42;99768.91;;;25.54;22.26
33496;BME280;19836;55.812;37.560;2023-05-29T15:35:14;99762.97;;;25.49;22.60
33496;BME280;19836;55.812;37.560;2023-05-29T15:37:41;99763.97;;;25.39;22.69
33496;BME280;19836;55.812;37.560;2023-05-29T15:40:08;99768.13;;;25.33;22.85
33496;BME280;19836;55.812;37.560;2023-05-29T15:42:35;99768.53;;;25.29;23.06
33496;BME280;19836;55.812;37.560;2023-05-29T15:45:02;99765.44;;;25.22;23.20
33496;BME280;19836;55.812;37.560;2023-05-29T15:47:30;99769.19;;;25.21;23.29
33496;BME280;19836;55.812;37.560;2023-05-29T15:49:57;99769.28;;;25.10;23.53
33496;BME280;19836;55.812;37.560;2023-05-29T15:52:26;99771.13;;;25.00;23.81
33496;BME280;19836;55.812;37.560;2023-05-29T15:54:52;99768.41;;;25.10;23.63
33496;BME280;19836;55.812;37.560;2023-05-29T15:57:19;99774.22;;;25.16;23.70
33496;BME280;19836;55.812;37.560;2023-05-29T15:59:45;99774.03;;;25.08;24.13
33496;BME280;19836;55.812;37.560;2023-05-29T16:02:11;99775.16;;;25.26;24.49
33496;BME280;19836;55.812;37.560;2023-05-29T16:04:37;99780.72;;;25.15;23.99
33496;BME280;19836;55.812;37.560;2023-05-29T16:07:03;99778.94;;;24.84;23.60
33496;BME280;19836;55.812;37.560;2023-05-29T16:09:29;99786.78;;;24.57;23.88
33496;BME280;19836;55.812;37.560;2023-05-29T16:11:55;99787.88;;;24.34;24.02
33496;BME280;19836;55.812;37.560;2023-05-29T16:14:21;99774.66;;;24.19;24.26
33496;BME280;19836;55.812;37.560;2023-05-29T16:16:47;99785.97;;;24.14;24.69
33496;BME280;19836;55.812;37.560;2023-05-29T16:19:14;99780.31;;;24.06;24.67
33496;BME280;19836;55.812;37.560;2023-05-29T16:21:40;99784.78;;;24.07;24.64
33496;BME280;19836;55.812;37.560;2023-05-29T16:24:06;99778.56;;;24.05;24.73
33496;BME280;19836;55.812;37.560;2023-05-29T16:26:32;99780.34;;;23.95;25.15
33496;BME280;19836;55.812;37.560;2023-05-29T16:29:00;99788.06;;;23.90;25.12
33496;BME280;19836;55.812;37.560;2023-05-29T16:31:27;99779.34;;;23.85;25.77
33496;BME280;19836;55.812;37.560;2023-05-29T16:33:54;99771.25;;;23.84;26.15
33496;BME280;19836;55.812;37.560;2023-05-29T16:36:20;99779.22;;;23.76;26.47
33496;BME280;19836;55.812;37.560;2023-05-29T16:38:47;99780.84;;;23.67;26.63
33496;BME280;19836;55.812;37.560;2023-05-29T16:41:13;99780.59;;;23.59;26.80
33496;BME280;19836;55.812;37.560;2023-05-29T16:43:39;99773.91;;;23.52;27.20
33496;BME280;19836;55.812;37.560;2023-05-29T16:46:06;99776.19;;;23.36;27.88
33496;BME280;19836;55.812;37.560;2023-05-29T16:48:35;99774.56;;;23.23;28.10
33496;BME280;19836;55.812;37.560;2023-05-29T16:51:07;99777.41;;;23.10;28.47
33496;BME280;19836;55.812;37.560;2023-05-29T16:53:34;99778.50;;;22.97;27.86
33496;BME280;19836;55.812;37.560;2023-05-29T16:56:01;99778.00;;;22.92;27.77
33496;BME280;19836;55.812;37.560;2023-05-29T16:58:27;99776.00;;;22.83;28.29
33496;BME280;19836;55.812;37.560;2023-05-29T17:00:53;99781.06;;;22.65;29.13
33496;BME280;19836;55.812;37.560;2023-05-29T17:03:20;99781.03;;;22.54;29.50
33496;BME280;19836;55.812;37.560;2023-05-29T17:05:46;99772.75;;;22.43;29.82
33496;BME280;19836;55.812;37.560;2023-05-29T17:08:12;99778.94;;;22.34;29.65
33496;BME280;19836;55.812;37.560;2023-05-29T17:10:39;99779.53;;;22.27;29.44
33496;BME280;19836;55.812;37.560;2023-05-29T17:13:06;99774.00;;;22.16;29.21
33496;BME280;19836;55.812;37.560;2023-05-29T17:15:33;99776.59;;;22.06;29.55
33496;BME280;19836;55.812;37.560;2023-05-29T17:17:59;99780.00;;;21.97;30.00
33496;BME280;19836;55.812;37.560;2023-05-29T17:20:25;99777.00;;;21.89;30.57
33496;BME280;19836;55.812;37.560;2023-05-29T17:22:52;99784.88;;;21.81;30.98
33496;BME280;19836;55.812;37.560;2023-05-29T17:25:18;99780.88;;;21.74;31.16
33496;BME280;19836;55.812;37.560;2023-05-29T17:27:45;99782.53;;;21.64;31.59
33496;BME280;19836;55.812;37.560;2023-05-29T17:30:11;99778.50;;;21.57;31.78
33496;BME280;19836;55.812;37.560;2023-05-29T17:32:38;99785.41;;;21.50;31.73
33496;BME280;19836;55.812;37.560;2023-05-29T17:35:04;99782.47;;;21.41;31.95
33496;BME280;19836;55.812;37.560;2023-05-29T17:37:31;99779.56;;;21.31;32.05
33496;BME280;19836;55.812;37.560;2023-05-29T17:39:57;99779.22;;;21.23;32.34
33496;BME280;19836;55.812;37.560;2023-05-29T17:42:22;99783.50;;;21.15;32.59
33496;BME280;19836;55.812;37.560;2023-05-29T17:44:48;99776.66;;;21.09;32.70
33496;BME280;19836;55.812;37.560;2023-05-29T17:47:15;99769.78;;;21.04;32.59
33496;BME280;19836;55.812;37.560;2023-05-29T17:49:41;99776.88;;;20.94;32.97
33496;BME280;19836;55.812;37.560;2023-05-29T17:52:07;99774.56;;;20.88;33.45
33496;BME280;19836;55.812;37.560;2023-05-29T17:54:33;99786.00;;;20.80;33.24
33496;BME280;19836;55.812;37.560;2023-05-29T17:56:59;99787.63;;;20.70;33.50
33496;BME280;19836;55.812;37.560;2023-05-29T17:59:30;99793.16;;;20.56;33.56
33496;BME280;19836;55.812;37.560;2023-05-29T18:01:58;99793.06;;;20.45;33.66
33496;BME280;19836;55.812;37.560;2023-05-29T18:04:26;99792.81;;;20.36;33.95
33496;BME280;19836;55.812;37.560;2023-05-29T18:06:54;99793.34;;;20.28;34.16
33496;BME280;19836;55.812;37.560;2023-05-29T18:09:20;99797.69;;;20.18;34.36
33496;BME280;19836;55.812;37.560;2023-05-29T18:11:46;99792.06;;;20.07;34.55
33496;BME280;19836;55.812;37.560;2023-05-29T18:14:12;99796.91;;;20.02;34.64
33496;BME280;19836;55.812;37.560;2023-05-29T18:16:57;99793.78;;;19.96;35.01
33496;BME280;19836;55.812;37.560;2023-05-29T18:19:23;99798.75;;;19.89;34.89
33496;BME280;19836;55.812;37.560;2023-05-29T18:21:49;99797.59;;;19.79;35.27
33496;BME280;19836;55.812;37.560;2023-05-29T18:24:15;99799.94;;;19.71;35.22
33496;BME280;19836;55.812;37.560;2023-05-29T18:26:40;99800.47;;;19.64;35.50
33496;BME280;19836;55.812;37.560;2023-05-29T18:29:08;99806.31;;;19.58;35.69
33496;BME280;19836;55.812;37.560;2023-05-29T18:31:34;99801.47;;;19.49;35.68
33496;BME280;19836;55.812;37.560;2023-05-29T18:34:01;99801.97;;;19.41;35.92
33496;BME280;19836;55.812;37.560;2023-05-29T18:36:30;99806.06;;;19.34;36.03
33496;BME280;19836;55.812;37.560;2023-05-29T18:38:56;99809.47;;;19.24;36.39
33496;BME280;19836;55.812;37.560;2023-05-29T18:41:23;99806.22;;;19.17;36.39
33496;BME280;19836;55.812;37.560;2023-05-29T18:43:50;99802.56;;;19.04;36.28
33496;BME280;19836;55.812;37.560;2023-05-29T18:46:17;99800.31;;;18.97;36.71
33496;BME280;19836;55.812;37.560;2023-05-29T18:48:43;99806.34;;;18.88;36.90
33496;BME280;19836;55.812;37.560;2023-05-29T18:51:09;99815.84;;;18.81;37.03
33496;BME280;19836;55.812;37.560;2023-05-29T18:53:39;99815.13;;;18.77;37.30
33496;BME280;19836;55.812;37.560;2023-05-29T18:56:07;99810.09;;;18.71;37.40
33496;BME280;19836;55.812;37.560;2023-05-29T18:58:33;99809.72;;;18.63;37.76
33496;BME280;19836;55.812;37.560;2023-05-29T19:00:59;99804.84;;;18.54;37.80
33496;BME280;19836;55.812;37.560;2023-05-29T19:03:27;99815.78;;;18.53;38.35
33496;BME280;19836;55.812;37.560;2023-05-29T19:05:53;99817.03;;;18.47;38.34
33496;BME280;19836;55.812;37.560;2023-05-29T19:08:18;99810.06;;;18.43;38.58
33496;BME280;19836;55.812;37.560;2023-05-29T19:10:44;99821.00;;;18.42;38.66
33496;BME280;19836;55.812;37.560;2023-05-29T19:13:10;99816.72;;;18.38;38.84
33496;BME280;19836;55.812;37.560;2023-05-29T19:15:37;99815.81;;;18.37;39.02
33496;BME280;19836;55.812;37.560;2023-05-29T19:18:05;99821.59;;;18.31;39.36
33496;BME280;19836;55.812;37.560;2023-05-29T19:20:31;99807.44;;;18.26;39.31
33496;BME280;19836;55.812;37.560;2023-05-29T19:22:57;99810.34;;;18.23;39.49
33496;BME280;19836;55.812;37.560;2023-05-29T19:25:23;99814.13;;;18.21;39.31
33496;BME280;19836;55.812;37.560;2023-05-29T19:27:49;99821.47;;;18.19;39.55
33496;BME280;19836;55.812;37.560;2023-05-29T19:30:17;99818.22;;;18.12;39.69
33496;BME280;19836;55.812;37.560;2023-05-29T19:32:44;99818.69;;;18.05;39.77